Terminal Aerodrome Forecast
Issued by NWS Sioux Falls, SD

Home | Current Version | Previous Version | Text Only | Print | Product List | Glossary On
Versions: 1 2 3 4 5 6 7 8 9 10 11 12 13
852
FTUS43 KFSD 221722
TAFFSD
TAF
KFSD 221722Z 2218/2318 19018G27KT P6SM SKC
     FM230500 18015G23KT P6SM FEW250 WS013/19045KT
     FM231300 17013KT P6SM FEW200
     FM231700 17017G24KT P6SM SCT110=

USA.gov is the U.S. government's official web portal to all federal, state and local government web resources and services.